Time;durP1;ratioP1;P1;durP2;ratioP2;P2;SDS_P1;SDS_P2;PMS_P1;PMS_P2;Temp;Humidity;BMP_temperature;BMP_pressure;BME280_temperature;BME280_humidity;BME280_pressure;Samples;Min_cycle;Max_cycle;Signal;HPM_P1;HPM_P2
2022/07/19 00:02:00;;;;;;;0.08;0.08;;;16.70;99.90;;;;;;5018997;28;20112;-84
2022/07/19 00:04:26;;;;;;;0.25;0.22;;;16.70;99.90;;;;;;5035571;28;20176;-84
2022/07/19 00:06:54;;;;;;;0.38;0.38;;;16.70;99.90;;;;;;5015900;28;20056;-84
2022/07/19 00:09:21;;;;;;;0.13;0.13;;;16.60;99.90;;;;;;5017899;28;20049;-84
2022/07/19 00:11:47;;;;;;;0.20;0.15;;;16.60;99.90;;;;;;5019422;28;20037;-84
2022/07/19 00:14:13;;;;;;;0.00;0.00;;;16.50;99.90;;;;;;5041101;22;20488;-84
2022/07/19 00:16:39;;;;;;;0.32;0.32;;;16.50;99.90;;;;;;5031870;28;20045;-84
2022/07/19 00:19:05;;;;;;;0.75;0.57;;;16.50;99.90;;;;;;5030896;28;20441;-84
2022/07/19 00:21:31;;;;;;;0.47;0.47;;;16.60;99.90;;;;;;5030608;28;20080;-84
2022/07/19 00:23:56;;;;;;;0.77;0.20;;;16.60;99.90;;;;;;4998932;28;20065;-84
2022/07/19 00:26:22;;;;;;;0.00;0.00;;;16.60;99.90;;;;;;5012383;28;20046;-84
2022/07/19 00:28:48;;;;;;;0.30;0.30;;;16.60;99.90;;;;;;4996246;28;20038;-84
2022/07/19 00:31:13;;;;;;;0.40;0.32;;;16.60;99.90;;;;;;5022029;28;20045;-84
2022/07/19 00:33:39;;;;;;;0.13;0.13;;;16.50;99.90;;;;;;5031566;28;20045;-84
2022/07/19 00:36:05;;;;;;;0.57;0.57;;;16.50;99.90;;;;;;5015700;28;20361;-84
2022/07/19 00:38:30;;;;;;;0.30;0.30;;;16.50;99.90;;;;;;5015449;28;20103;-84
2022/07/19 00:40:56;;;;;;;0.10;0.10;;;16.50;99.90;;;;;;5032561;28;20090;-84
2022/07/19 00:43:22;;;;;;;0.10;0.10;;;16.40;99.90;;;;;;4998598;28;20383;-84
2022/07/19 00:45:47;;;;;;;0.20;0.20;;;16.30;99.90;;;;;;5015196;28;20041;-84
2022/07/19 00:48:14;;;;;;;0.25;0.25;;;16.30;99.90;;;;;;5015673;28;20065;-84
2022/07/19 00:50:40;;;;;;;0.20;0.20;;;16.20;99.90;;;;;;5015695;28;20423;-84
2022/07/19 00:53:06;;;;;;;0.65;0.47;;;16.20;99.90;;;;;;5028981;28;20041;-84
2022/07/19 00:55:38;;;;;;;0.10;0.10;;;16.20;99.90;;;;;;4999161;28;20087;-84
2022/07/19 00:58:03;;;;;;;1.40;1.23;;;16.20;99.90;;;;;;5015554;28;20373;-84
2022/07/19 01:00:33;;;;;;;0.22;0.22;;;16.10;99.90;;;;;;5034198;28;20124;-84
2022/07/19 01:02:59;;;;;;;0.00;0.00;;;16.10;99.90;;;;;;5035088;28;20076;-84
2022/07/19 01:05:24;;;;;;;0.10;0.10;;;16.00;99.90;;;;;;5018582;28;20048;-84
2022/07/19 01:07:50;;;;;;;0.20;0.20;;;16.00;99.90;;;;;;5019287;28;20045;-84
2022/07/19 01:10:16;;;;;;;0.00;0.00;;;16.00;99.90;;;;;;5035483;28;20049;-84
2022/07/19 01:12:43;;;;;;;0.82;0.82;;;16.00;99.90;;;;;;5018897;28;20077;-83
2022/07/19 01:15:21;;;;;;;0.30;0.30;;;16.00;99.90;;;;;;5034717;28;20062;-83
2022/07/19 01:17:49;;;;;;;0.00;0.00;;;16.00;99.90;;;;;;5035359;28;20057;-83
2022/07/19 01:20:16;;;;;;;0.20;0.20;;;15.90;99.90;;;;;;5035777;28;20045;-83
2022/07/19 01:22:43;;;;;;;0.10;0.10;;;16.00;99.90;;;;;;5035586;28;20041;-83
2022/07/19 01:25:09;;;;;;;0.47;0.30;;;15.90;99.90;;;;;;5025431;28;20041;-83
2022/07/19 01:27:40;;;;;;;0.20;0.20;;;15.80;99.90;;;;;;5015356;28;20069;-83
2022/07/19 01:30:14;;;;;;;1.17;0.75;;;15.90;99.90;;;;;;5015633;28;20038;-83
2022/07/19 01:32:39;;;;;;;2.38;1.08;;;15.80;99.90;;;;;;5012440;28;20037;-83
2022/07/19 01:35:07;;;;;;;0.65;0.32;;;15.90;99.90;;;;;;5032774;28;20044;-83
2022/07/19 01:37:34;;;;;;;0.20;0.20;;;15.90;99.90;;;;;;5034973;28;20230;-83
2022/07/19 01:40:01;;;;;;;0.17;0.17;;;15.80;99.90;;;;;;5035300;28;20525;-83
2022/07/19 01:42:26;;;;;;;0.17;0.17;;;15.80;99.90;;;;;;5017824;28;20048;-83
2022/07/19 01:44:52;;;;;;;0.20;0.20;;;15.80;99.90;;;;;;5033201;28;20041;-83
2022/07/19 01:47:18;;;;;;;0.20;0.20;;;15.80;99.90;;;;;;5015848;28;20487;-84
2022/07/19 01:49:44;;;;;;;0.03;0.03;;;15.80;99.90;;;;;;5032179;28;20431;-84
2022/07/19 01:52:09;;;;;;;1.88;0.65;;;15.70;99.90;;;;;;4999774;28;20041;-84
2022/07/19 01:54:35;;;;;;;1.75;0.65;;;15.70;99.90;;;;;;5032375;28;20051;-84
2022/07/19 01:57:01;;;;;;;0.10;0.10;;;15.70;99.90;;;;;;5033134;28;20041;-84
2022/07/19 01:59:26;;;;;;;0.47;0.47;;;15.60;99.90;;;;;;5030232;28;20388;-84
2022/07/19 02:01:52;;;;;;;0.55;0.55;;;15.60;99.90;;;;;;5018875;28;20045;-84
2022/07/19 02:04:18;;;;;;;0.40;0.40;;;15.60;99.90;;;;;;5017741;28;20121;-83
2022/07/19 02:06:43;;;;;;;0.30;0.30;;;15.60;99.90;;;;;;4985087;28;20047;-83
2022/07/19 02:09:09;;;;;;;0.20;0.20;;;15.60;99.90;;;;;;5034695;28;20384;-83
2022/07/19 02:11:35;;;;;;;0.35;0.30;;;15.60;99.90;;;;;;5017967;28;20099;-83
2022/07/19 02:14:01;;;;;;;0.20;0.20;;;15.60;99.90;;;;;;5001180;28;20120;-83
2022/07/19 02:16:27;;;;;;;0.40;0.40;;;15.50;99.90;;;;;;5034169;28;20050;-83
2022/07/19 02:18:53;;;;;;;0.75;0.75;;;15.50;99.90;;;;;;5032765;28;20102;-83
2022/07/19 02:21:19;;;;;;;0.52;0.52;;;15.50;99.90;;;;;;5001504;28;20499;-84
2022/07/19 02:23:45;;;;;;;0.65;0.47;;;15.50;99.90;;;;;;5017665;28;20041;-84
2022/07/19 02:26:10;;;;;;;0.22;0.22;;;15.40;99.90;;;;;;5034021;28;20060;-84
2022/07/19 02:28:36;;;;;;;0.10;0.10;;;15.40;99.90;;;;;;5015676;28;20041;-84
2022/07/19 02:31:02;;;;;;;0.13;0.10;;;15.40;99.90;;;;;;5033347;28;20045;-84
2022/07/19 02:33:28;;;;;;;0.20;0.20;;;15.40;99.90;;;;;;5017805;28;20045;-84
2022/07/19 02:35:53;;;;;;;0.43;0.30;;;15.40;99.90;;;;;;5001386;28;20387;-83
2022/07/19 02:38:19;;;;;;;0.65;0.65;;;15.40;99.90;;;;;;5016666;28;20042;-83
2022/07/19 02:40:45;;;;;;;0.20;0.20;;;15.40;99.90;;;;;;5034161;28;20395;-83
2022/07/19 02:43:10;;;;;;;0.22;0.22;;;15.40;99.90;;;;;;5017162;28;20041;-83
2022/07/19 02:45:36;;;;;;;0.25;0.25;;;15.40;99.90;;;;;;5017395;28;20043;-83
2022/07/19 02:48:04;;;;;;;0.30;0.30;;;15.40;99.90;;;;;;5000895;28;20076;-83
2022/07/19 02:50:30;;;;;;;0.13;0.13;;;15.40;99.90;;;;;;5031669;28;20045;-83
2022/07/19 02:52:56;;;;;;;1.08;0.70;;;15.40;99.90;;;;;;5017175;28;20132;-83
2022/07/19 02:55:22;;;;;;;7.07;1.85;;;15.40;99.90;;;;;;5017577;28;20132;-83
2022/07/19 02:57:47;;;;;;;0.65;0.43;;;15.40;99.90;;;;;;5016873;28;20393;-83
2022/07/19 03:00:14;;;;;;;0.10;0.10;;;15.30;99.90;;;;;;5032898;28;20048;-83
2022/07/19 03:02:39;;;;;;;0.10;0.10;;;15.30;99.90;;;;;;5070320;28;20482;-83
2022/07/19 03:05:07;;;;;;;0.30;0.13;;;15.20;99.90;;;;;;5041820;28;20087;-83
2022/07/19 03:07:32;;;;;;;1.35;0.70;;;15.20;99.90;;;;;;5033996;28;20115;-83
2022/07/19 03:09:58;;;;;;;0.10;0.10;;;15.30;99.90;;;;;;5031240;28;20037;-83
2022/07/19 03:12:24;;;;;;;0.10;0.10;;;15.20;99.90;;;;;;5017025;28;20120;-84
2022/07/19 03:14:49;;;;;;;0.43;0.32;;;15.20;99.90;;;;;;5028500;28;20057;-84
2022/07/19 03:17:15;;;;;;;0.47;0.47;;;15.20;99.90;;;;;;5036537;28;20041;-84
2022/07/19 03:19:41;;;;;;;0.00;0.00;;;15.20;99.90;;;;;;5053185;28;20103;-84
2022/07/19 03:22:07;;;;;;;0.10;0.10;;;15.20;99.90;;;;;;5031274;28;20052;-84
2022/07/19 03:24:33;;;;;;;0.15;0.15;;;15.20;99.90;;;;;;5016685;28;20044;-84
2022/07/19 03:26:58;;;;;;;0.00;0.00;;;15.20;99.90;;;;;;5033294;28;20045;-84
2022/07/19 03:29:24;;;;;;;0.20;0.20;;;15.20;99.90;;;;;;5016824;28;20741;-84
2022/07/19 03:31:50;;;;;;;0.20;0.20;;;15.20;99.90;;;;;;5031782;28;20099;-83
2022/07/19 03:34:16;;;;;;;0.10;0.10;;;15.20;99.90;;;;;;5033087;28;20041;-84
2022/07/19 03:36:41;;;;;;;0.20;0.20;;;15.20;99.90;;;;;;5033207;28;20475;-84
2022/07/19 03:39:07;;;;;;;0.10;0.10;;;15.20;99.90;;;;;;5016037;28;20049;-84
2022/07/19 03:41:33;;;;;;;0.20;0.20;;;15.20;99.90;;;;;;5030805;28;20408;-83
2022/07/19 03:43:59;;;;;;;0.20;0.20;;;15.20;99.90;;;;;;5032280;28;20487;-84
2022/07/19 03:46:25;;;;;;;0.65;0.55;;;15.30;99.90;;;;;;5032753;28;20041;-84
2022/07/19 03:48:52;;;;;;;0.17;0.13;;;15.30;99.90;;;;;;5016345;28;20051;-84
2022/07/19 03:51:17;;;;;;;0.47;0.40;;;15.30;99.90;;;;;;5032785;28;20048;-84
2022/07/19 03:53:43;;;;;;;0.13;0.10;;;15.30;99.90;;;;;;5015377;28;20464;-84
2022/07/19 03:56:09;;;;;;;1.55;1.00;;;15.30;99.90;;;;;;5032303;28;20056;-84
2022/07/19 03:58:34;;;;;;;0.20;0.20;;;15.30;99.90;;;;;;5016054;28;20068;-84
2022/07/19 04:01:00;;;;;;;0.28;0.28;;;15.40;99.90;;;;;;5024585;28;20083;-83
2022/07/19 04:03:26;;;;;;;0.40;0.38;;;15.40;99.90;;;;;;5021502;28;20033;-83
2022/07/19 04:05:52;;;;;;;1.27;0.50;;;15.40;99.90;;;;;;4983625;28;20490;-83
2022/07/19 04:08:18;;;;;;;0.20;0.20;;;15.50;99.90;;;;;;4999726;28;20099;-83
2022/07/19 04:10:43;;;;;;;0.17;0.17;;;15.50;99.90;;;;;;5032766;28;20050;-83
2022/07/19 04:13:09;;;;;;;0.13;0.13;;;15.50;99.90;;;;;;5015453;28;20052;-83
2022/07/19 04:15:35;;;;;;;0.35;0.25;;;15.50;99.90;;;;;;5015773;28;20069;-83
2022/07/19 04:18:01;;;;;;;0.22;0.13;;;15.60;99.90;;;;;;4984058;28;20379;-84
2022/07/19 04:20:26;;;;;;;0.55;0.55;;;15.60;99.90;;;;;;4999583;28;20037;-84
2022/07/19 04:22:52;;;;;;;0.10;0.10;;;15.70;99.90;;;;;;5016021;28;20116;-85
2022/07/19 04:25:18;;;;;;;0.17;0.10;;;15.70;99.90;;;;;;5030969;28;20435;-84
2022/07/19 04:27:44;;;;;;;0.50;0.50;;;15.80;99.90;;;;;;5038635;28;20068;-84
2022/07/19 04:30:10;;;;;;;0.20;0.20;;;15.90;99.90;;;;;;5052309;28;20047;-84
2022/07/19 04:32:35;;;;;;;0.15;0.15;;;15.90;99.90;;;;;;5052715;28;20033;-84
2022/07/19 04:35:02;;;;;;;0.22;0.22;;;16.00;99.90;;;;;;5026047;28;20087;-84
2022/07/19 04:37:27;;;;;;;0.10;0.10;;;16.00;99.90;;;;;;5036206;28;20041;-84
2022/07/19 04:39:53;;;;;;;0.13;0.13;;;16.10;99.90;;;;;;5019562;28;20051;-84
2022/07/19 04:42:19;;;;;;;0.20;0.20;;;16.20;99.90;;;;;;5019674;28;20047;-84
2022/07/19 04:44:45;;;;;;;0.10;0.10;;;16.30;99.90;;;;;;5034168;28;20120;-84
2022/07/19 04:47:10;;;;;;;0.20;0.20;;;16.40;99.90;;;;;;5035815;28;20037;-84
2022/07/19 04:49:36;;;;;;;0.43;0.43;;;16.50;99.90;;;;;;5019459;28;20045;-84
2022/07/19 04:52:02;;;;;;;0.00;0.00;;;16.60;99.90;;;;;;5035923;28;20045;-84
2022/07/19 04:54:27;;;;;;;0.13;0.13;;;16.80;99.90;;;;;;5019299;28;20048;-84
2022/07/19 04:56:53;;;;;;;0.35;0.35;;;17.10;99.90;;;;;;5032380;28;20079;-84
2022/07/19 04:59:19;;;;;;;0.20;0.20;;;17.20;99.90;;;;;;5035424;28;20042;-84
2022/07/19 05:01:45;;;;;;;0.17;0.17;;;17.50;99.90;;;;;;5016693;28;20655;-84
2022/07/19 05:04:11;;;;;;;4.13;0.35;;;17.70;99.90;;;;;;5039253;28;20044;-84
2022/07/19 05:06:36;;;;;;;1.70;0.52;;;17.90;99.90;;;;;;5039121;28;20041;-84
2022/07/19 05:09:03;;;;;;;0.50;0.50;;;18.10;99.90;;;;;;5020173;28;20109;-85
2022/07/19 05:11:28;;;;;;;0.30;0.30;;;18.30;99.90;;;;;;5019181;28;20100;-85
2022/07/19 05:13:54;;;;;;;0.20;0.20;;;18.60;99.90;;;;;;5018935;28;20096;-85
2022/07/19 05:16:20;;;;;;;0.35;0.35;;;18.90;99.90;;;;;;5018836;28;20045;-85
2022/07/19 05:18:46;;;;;;;0.55;0.52;;;18.90;99.90;;;;;;5036319;28;20067;-84
2022/07/19 05:21:11;;;;;;;0.10;0.10;;;19.10;99.90;;;;;;5019051;28;20037;-83
2022/07/19 05:23:39;;;;;;;0.90;0.43;;;19.30;99.90;;;;;;5035307;28;20037;-83
2022/07/19 05:26:04;;;;;;;0.43;0.35;;;19.50;99.90;;;;;;5019141;28;20496;-83
2022/07/19 05:28:30;;;;;;;0.68;0.63;;;19.70;99.90;;;;;;5033985;28;20790;-83
2022/07/19 05:30:56;;;;;;;0.10;0.10;;;19.90;99.90;;;;;;5015398;28;20041;-83
2022/07/19 05:33:21;;;;;;;0.38;0.38;;;20.30;99.90;;;;;;5031756;28;20049;-83
2022/07/19 05:35:47;;;;;;;0.50;0.50;;;21.50;99.90;;;;;;5029992;28;20356;-83
2022/07/19 05:38:13;;;;;;;0.10;0.10;;;21.90;99.90;;;;;;5017175;28;20053;-83
2022/07/19 05:40:38;;;;;;;0.10;0.10;;;22.70;99.90;;;;;;5029355;28;20041;-85
2022/07/19 05:43:04;;;;;;;0.40;0.40;;;24.10;99.90;;;;;;5022391;28;20441;-85
2022/07/19 05:45:30;;;;;;;0.50;0.50;;;24.60;99.90;;;;;;4999067;28;20034;-85
2022/07/19 05:47:56;;;;;;;0.08;0.08;;;25.20;98.50;;;;;;5033294;28;20402;-85
2022/07/19 05:50:21;;;;;;;0.00;0.00;;;25.60;97.00;;;;;;5034626;28;20042;-85
2022/07/19 05:52:47;;;;;;;0.60;0.60;;;25.80;96.70;;;;;;4985710;28;20144;-85
2022/07/19 05:55:13;;;;;;;0.43;0.30;;;26.20;96.00;;;;;;5002182;28;20045;-85
2022/07/19 05:57:38;;;;;;;0.40;0.40;;;26.50;95.00;;;;;;5015990;28;20043;-85
2022/07/19 06:00:05;;;;;;;0.13;0.13;;;26.60;93.90;;;;;;5017457;28;20392;-85
2022/07/19 06:02:30;;;;;;;0.43;0.32;;;27.30;92.80;;;;;;5017035;28;20037;-85
2022/07/19 06:04:56;;;;;;;0.30;0.30;;;27.20;93.10;;;;;;5017456;28;20788;-86
2022/07/19 06:07:22;;;;;;;0.60;0.60;;;27.70;92.30;;;;;;5016428;28;20404;-85
2022/07/19 06:09:47;;;;;;;0.20;0.20;;;27.90;91.60;;;;;;4999475;28;20041;-86
2022/07/19 06:12:13;;;;;;;0.57;0.57;;;28.20;90.60;;;;;;5016086;28;20052;-86
2022/07/19 06:14:39;;;;;;;0.40;0.40;;;28.60;91.00;;;;;;5031230;23;20053;-86
2022/07/19 06:17:05;;;;;;;0.57;0.38;;;28.50;90.40;;;;;;5054018;28;20067;-86
2022/07/19 06:19:30;;;;;;;0.28;0.28;;;28.50;87.80;;;;;;5048864;28;20514;-85
2022/07/19 06:21:56;;;;;;;0.55;0.40;;;28.80;88.30;;;;;;5028080;28;20057;-86
2022/07/19 06:24:22;;;;;;;0.60;0.40;;;28.90;86.50;;;;;;5032752;28;20049;-86
2022/07/19 06:26:47;;;;;;;0.20;0.20;;;29.10;86.90;;;;;;5052742;28;20052;-86
2022/07/19 06:29:13;;;;;;;0.20;0.20;;;29.50;87.10;;;;;;5051260;28;20075;-86
2022/07/19 06:31:39;;;;;;;0.68;0.60;;;29.90;87.00;;;;;;5048143;28;20041;-86
2022/07/19 06:34:05;;;;;;;0.25;0.25;;;30.20;87.50;;;;;;5017935;28;20049;-86
2022/07/19 06:36:30;;;;;;;0.68;0.68;;;30.50;83.40;;;;;;5034814;28;20503;-86
2022/07/19 06:38:56;;;;;;;0.70;0.50;;;30.60;82.10;;;;;;5049735;28;20041;-86
2022/07/19 06:41:22;;;;;;;0.73;0.73;;;30.80;83.30;;;;;;5047456;28;20048;-86
2022/07/19 06:43:47;;;;;;;7.07;1.40;;;30.90;81.50;;;;;;5056718;28;20047;-86
2022/07/19 06:46:13;;;;;;;0.30;0.30;;;31.00;80.00;;;;;;5040900;28;20041;-87
2022/07/19 06:48:39;;;;;;;0.55;0.55;;;31.20;80.00;;;;;;5056838;28;20124;-86
2022/07/19 06:51:11;;;;;;;0.38;0.38;;;31.50;78.90;;;;;;5004876;28;20052;-86
2022/07/19 06:53:44;;;;;;;0.35;0.35;;;31.70;80.00;;;;;;5036166;28;20043;-86
2022/07/19 06:56:09;;;;;;;0.60;0.60;;;31.90;79.10;;;;;;4991739;28;20044;-86
2022/07/19 06:58:35;;;;;;;0.47;0.40;;;32.20;80.50;;;;;;5040385;28;20045;-86
2022/07/19 07:01:02;;;;;;;0.32;0.28;;;32.50;78.30;;;;;;5025634;28;20045;-87
2022/07/19 07:03:28;;;;;;;0.10;0.10;;;32.80;77.20;;;;;;5028581;28;20045;-87
2022/07/19 07:05:54;;;;;;;1.25;0.20;;;33.10;76.70;;;;;;5026894;28;20534;-87
2022/07/19 07:08:20;;;;;;;5.70;0.45;;;33.30;76.80;;;;;;5052612;28;20052;-86
2022/07/19 07:10:46;;;;;;;0.57;0.57;;;33.50;75.70;;;;;;5051084;28;20049;-87
2022/07/19 07:13:12;;;;;;;0.30;0.30;;;33.70;75.10;;;;;;5053336;28;20127;-86
2022/07/19 07:15:38;;;;;;;1.17;0.45;;;33.90;74.90;;;;;;5050986;28;20516;-87
2022/07/19 07:18:04;;;;;;;0.22;0.22;;;34.30;76.20;;;;;;5038592;28;20041;-86
2022/07/19 07:20:30;;;;;;;0.32;0.32;;;34.40;73.10;;;;;;5050517;28;20041;-86
2022/07/19 07:22:55;;;;;;;0.40;0.40;;;34.70;75.30;;;;;;5052837;28;20040;-86
2022/07/19 07:25:21;;;;;;;0.35;0.25;;;34.90;72.60;;;;;;5052869;28;20041;-85
2022/07/19 07:27:47;;;;;;;0.40;0.40;;;35.30;73.10;;;;;;5052127;28;20500;-86
2022/07/19 07:30:12;;;;;;;0.95;0.47;;;35.30;72.10;;;;;;5051243;28;20095;-86
2022/07/19 07:32:38;;;;;;;0.52;0.52;;;35.50;72.10;;;;;;5052470;28;20041;-85
2022/07/19 07:35:04;;;;;;;0.13;0.13;;;35.60;70.30;;;;;;5052393;28;20041;-86
2022/07/19 07:37:30;;;;;;;0.57;0.57;;;35.80;70.40;;;;;;5052794;28;20044;-86
2022/07/19 07:39:56;;;;;;;1.35;0.90;;;35.90;69.80;;;;;;5024354;28;20368;-87
2022/07/19 07:42:24;;;;;;;0.32;0.32;;;36.20;70.00;;;;;;5013193;28;20041;-87
2022/07/19 07:44:50;;;;;;;0.40;0.40;;;36.50;68.60;;;;;;5000820;28;20037;-86
2022/07/19 07:47:16;;;;;;;0.43;0.43;;;36.60;68.20;;;;;;5032518;28;20044;-86
2022/07/19 07:49:42;;;;;;;0.20;0.20;;;36.80;67.20;;;;;;4999949;28;20041;-87
2022/07/19 07:52:08;;;;;;;1.88;0.90;;;36.90;67.50;;;;;;5052420;28;20041;-86
2022/07/19 07:54:34;;;;;;;0.20;0.20;;;36.90;68.50;;;;;;5052958;28;20363;-82
2022/07/19 07:57:00;;;;;;;0.68;0.68;;;36.90;66.80;;;;;;5036217;28;20037;-82
2022/07/19 07:59:26;;;;;;;0.30;0.30;;;37.10;67.70;;;;;;5035951;28;20098;-82
2022/07/19 08:01:52;;;;;;;0.20;0.20;;;37.30;69.30;;;;;;5033360;28;20040;-83
2022/07/19 08:04:17;;;;;;;0.22;0.22;;;37.70;66.90;;;;;;5052800;28;20048;-83
2022/07/19 08:06:43;;;;;;;1.77;0.50;;;38.20;67.80;;;;;;5036157;28;20036;-83
2022/07/19 08:09:09;;;;;;;0.30;0.30;;;38.50;65.30;;;;;;5035658;28;20376;-82
2022/07/19 08:11:34;;;;;;;0.30;0.30;;;38.80;64.90;;;;;;5035075;28;20048;-83
2022/07/19 08:14:01;;;;;;;0.28;0.28;;;39.00;64.40;;;;;;5049753;28;20053;-83
2022/07/19 08:16:26;;;;;;;0.65;0.65;;;39.20;64.00;;;;;;5052780;28;20057;-83
2022/07/19 08:18:52;;;;;;;0.22;0.22;;;39.40;63.00;;;;;;5035760;28;20391;-83
2022/07/19 08:21:18;;;;;;;1.27;0.80;;;39.50;62.90;;;;;;5019599;28;20075;-83
2022/07/19 08:23:43;;;;;;;0.20;0.20;;;39.90;62.50;;;;;;5034214;28;20124;-83
2022/07/19 08:26:09;;;;;;;0.30;0.30;;;40.30;62.60;;;;;;5035645;28;20033;-85
2022/07/19 08:28:36;;;;;;;0.30;0.30;;;40.30;61.40;;;;;;5052003;28;20048;-89
2022/07/19 08:31:01;;;;;;;0.60;0.60;;;40.40;61.30;;;;;;5035564;28;20048;-90
2022/07/19 08:33:27;;;;;;;0.30;0.30;;;40.40;62.50;;;;;;5033750;28;20041;-90
2022/07/19 08:35:53;;;;;;;0.25;0.25;;;40.70;60.70;;;;;;5018604;28;20037;-90
2022/07/19 08:38:18;;;;;;;0.57;0.57;;;41.00;60.70;;;;;;5051664;28;20052;-90
2022/07/19 08:40:46;;;;;;;0.43;0.43;;;;;;;;;;5044942;28;20400;-90
2022/07/19 08:43:13;;;;;;;0.85;0.70;;;41.70;58.90;;;;;;5006498;28;20065;-87
2022/07/19 08:45:41;;;;;;;0.20;0.20;;;42.00;60.20;;;;;;5027585;28;20368;-88
2022/07/19 08:48:07;;;;;;;0.40;0.40;;;42.00;58.10;;;;;;5025125;28;20055;-88
2022/07/19 08:50:34;;;;;;;0.40;0.40;;;42.00;60.40;;;;;;5010210;28;20049;-88
2022/07/19 08:53:01;;;;;;;0.30;0.30;;;41.40;57.00;;;;;;5023779;28;20042;-88
2022/07/19 08:55:27;;;;;;;0.20;0.20;;;41.20;58.30;;;;;;5030294;28;20041;-88
2022/07/19 08:58:01;;;;;;;0.30;0.30;;;41.30;58.90;;;;;;5040049;28;20032;-89
2022/07/19 09:00:29;;;;;;;3.75;0.60;;;41.80;57.40;;;;;;5050429;28;20041;-91
2022/07/19 09:02:59;;;;;;;0.43;0.43;;;41.80;57.70;;;;;;5034444;28;20049;-90
2022/07/19 09:05:26;;;;;;;0.40;0.40;;;41.60;57.70;;;;;;5034260;28;20033;-89
2022/07/19 09:08:08;;;;;;;0.28;0.28;;;41.60;58.10;;;;;;5052109;28;20044;-89
2022/07/19 09:10:36;;;;;;;0.30;0.30;;;41.60;59.70;;;;;;5051628;28;20037;-89
2022/07/19 09:13:10;;;;;;;0.30;0.30;;;41.60;57.20;;;;;;5034608;28;20033;-89
2022/07/19 09:15:36;;;;;;;;;;;41.60;58.30;;;;;;5050294;28;20045;-89
2022/07/19 09:18:11;;;;;;;0.28;0.28;;;41.40;56.90;;;;;;5051581;28;20370;-88
2022/07/19 09:20:38;;;;;;;0.47;0.47;;;41.40;59.00;;;;;;5036185;28;20095;-88
2022/07/19 09:23:04;;;;;;;0.65;0.65;;;41.20;57.80;;;;;;5021537;28;20073;-88
2022/07/19 09:25:50;;;;;;;0.30;0.30;;;40.90;56.70;;;;;;5019811;28;20073;-88
2022/07/19 09:28:16;;;;;;;0.20;0.20;;;40.60;58.00;;;;;;5054486;28;20080;-89
2022/07/19 09:30:48;;;;;;;0.88;0.82;;;40.80;58.30;;;;;;5055366;28;20041;-86
2022/07/19 09:33:23;;;;;;;0.20;0.20;;;40.70;56.30;;;;;;5038477;28;20040;-86
2022/07/19 09:35:51;;;;;;;0.40;0.40;;;40.90;57.80;;;;;;5053703;28;20040;-86
2022/07/19 09:38:21;;;;;;;1.88;0.68;;;41.00;56.70;;;;;;5031682;28;20107;-86
2022/07/19 09:41:08;;;;;;;0.57;0.57;;;41.40;57.00;;;;;;5054740;28;20068;-86
2022/07/19 09:43:54;;;;;;;0.47;0.47;;;41.50;56.60;;;;;;5055192;28;20128;-86
2022/07/19 09:46:40;;;;;;;0.40;0.40;;;42.20;57.50;;;;;;5055286;28;20048;-86
2022/07/19 09:49:08;;;;;;;0.20;0.20;;;42.80;56.50;;;;;;5038050;28;20152;-86
2022/07/19 09:51:42;;;;;;;0.80;0.30;;;43.50;54.60;;;;;;5037760;28;20114;-90
2022/07/19 09:54:12;;;;;;;;;;;43.70;54.60;;;;;;5055023;28;20395;-90
2022/07/19 09:56:40;;;;;;;0.25;0.25;;;43.80;54.20;;;;;;5054640;28;19917;-89
2022/07/19 09:59:06;;;;;;;0.77;0.75;;;44.10;53.30;;;;;;5054076;28;20571;-90
2022/07/19 10:01:32;;;;;;;0.20;0.20;;;43.80;54.50;;;;;;5037827;28;20387;-90
2022/07/19 10:04:02;;;;;;;0.50;0.50;;;43.80;54.10;;;;;;5052761;28;20033;-86
2022/07/19 10:06:28;;;;;;;0.20;0.20;;;43.50;52.00;;;;;;5037582;28;20040;-92
2022/07/19 10:08:54;;;;;;;1.45;0.70;;;43.40;51.90;;;;;;5054331;28;20045;-92
2022/07/19 10:11:21;;;;;;;1.65;0.65;;;43.40;52.40;;;;;;5020949;28;20380;-91
2022/07/19 10:13:49;;;;;;;0.63;0.43;;;;;;;;;;5038920;28;20393;-91
2022/07/19 10:16:20;;;;;;;0.30;0.30;;;43.00;52.10;;;;;;5040721;28;20135;-91
2022/07/19 10:19:08;;;;;;;0.35;0.35;;;43.20;53.90;;;;;;5057089;28;20048;-92
2022/07/19 10:21:35;;;;;;;0.25;0.25;;;43.30;52.70;;;;;;5057080;28;20076;-93
2022/07/19 10:24:02;;;;;;;0.40;0.40;;;43.20;51.70;;;;;;5040669;28;20131;-89
2022/07/19 10:26:35;;;;;;;2.75;0.77;;;43.30;52.30;;;;;;5024126;28;20044;-90
2022/07/19 10:29:12;;;;;;;0.28;0.28;;;43.60;52.10;;;;;;5036926;28;20048;-90
2022/07/19 10:31:40;;;;;;;0.30;0.30;;;43.90;52.20;;;;;;5036795;28;20051;-90
2022/07/19 10:34:21;;;;;;;0.63;0.63;;;43.80;50.50;;;;;;5020600;28;20049;-90
2022/07/19 10:36:49;;;;;;;0.50;0.50;;;43.30;50.80;;;;;;5020489;28;20098;-89
2022/07/19 10:39:18;;;;;;;0.25;0.25;;;42.90;50.80;;;;;;5036617;28;20055;-90
2022/07/19 10:42:09;;;;;;;0.40;0.40;;;43.00;50.90;;;;;;5036964;28;20110;-91
2022/07/19 10:44:56;;;;;;;0.57;0.57;;;43.20;50.80;;;;;;5036905;28;20114;-91
2022/07/19 10:47:22;;;;;;;0.45;0.45;;;43.90;51.90;;;;;;5036633;28;20076;-91
2022/07/19 10:49:49;;;;;;;0.50;0.50;;;43.60;48.80;;;;;;5020054;28;20045;-92
2022/07/19 10:52:27;;;;;;;0.22;0.22;;;43.40;49.10;;;;;;5036549;28;20094;-91
2022/07/19 10:55:22;;;;;;;0.40;0.40;;;43.40;49.10;;;;;;5036572;28;20509;-92
2022/07/19 10:57:51;;;;;;;3.40;0.47;;;43.80;50.90;;;;;;5036457;28;20076;-92
2022/07/19 11:00:30;;;;;;;0.22;0.22;;;43.90;50.00;;;;;;5020107;28;20049;-91
2022/07/19 11:03:21;;;;;;;0.55;0.55;;;44.30;50.00;;;;;;5036925;28;20037;-92
2022/07/19 11:05:52;;;;;;;0.25;0.25;;;44.80;49.40;;;;;;5055572;28;20044;-91
2022/07/19 11:08:29;;;;;;;0.93;0.93;;;44.00;47.40;;;;;;5056109;28;20040;-93
2022/07/19 11:11:06;;;;;;;0.43;0.30;;;43.60;47.80;;;;;;5039773;28;20402;-92
2022/07/19 11:13:32;;;;;;;0.32;0.32;;;43.30;48.60;;;;;;5056316;28;20040;-90
2022/07/19 11:15:58;;;;;;;0.35;0.35;;;43.40;48.90;;;;;;5052615;28;20110;-91
2022/07/19 11:18:24;;;;;;;0.35;0.35;;;43.70;50.60;;;;;;5035833;28;20080;-90
2022/07/19 11:20:50;;;;;;;0.20;0.20;;;43.80;49.70;;;;;;5052782;28;20080;-90
2022/07/19 11:23:22;;;;;;;0.30;0.30;;;43.80;49.60;;;;;;5036144;28;20041;-90
2022/07/19 11:25:50;;;;;;;0.30;0.30;;;43.60;47.80;;;;;;5052649;28;20036;-90
2022/07/19 11:28:23;;;;;;;0.30;0.30;;;43.60;47.80;;;;;;5036302;28;20067;-89
2022/07/19 11:30:50;;;;;;;0.35;0.35;;;43.90;48.30;;;;;;5052574;28;20076;-89
2022/07/19 11:33:19;;;;;;;0.38;0.38;;;44.00;49.10;;;;;;5052605;28;20064;-89
2022/07/19 11:35:59;;;;;;;0.20;0.20;;;43.60;48.00;;;;;;5052467;28;20430;-90
2022/07/19 11:38:45;;;;;;;0.20;0.20;;;43.50;47.80;;;;;;5035647;28;20053;-90
2022/07/19 11:41:27;;;;;;;0.10;0.10;;;43.60;48.30;;;;;;5052721;28;20049;-89
2022/07/19 11:44:01;;;;;;;0.25;0.25;;;43.30;46.60;;;;;;5051852;28;20119;-89
2022/07/19 11:46:37;;;;;;;0.63;0.63;;;42.80;46.90;;;;;;5052360;28;20072;-89
2022/07/19 11:49:05;;;;;;;0.20;0.20;;;42.70;47.70;;;;;;5052249;28;20629;-89
2022/07/19 11:51:31;;;;;;;0.30;0.30;;;43.10;48.90;;;;;;5052169;28;20036;-90
2022/07/19 11:53:59;;;;;;;0.30;0.30;;;43.60;48.30;;;;;;5052131;28;20037;-90
2022/07/19 11:56:30;;;;;;;0.30;0.30;;;44.30;48.40;;;;;;5051984;28;20075;-90
2022/07/19 11:58:58;;;;;;;0.30;0.30;;;44.80;46.50;;;;;;5051993;28;20041;-90
2022/07/19 12:01:32;;;;;;;0.25;0.25;;;45.10;47.70;;;;;;5052294;28;20157;-90
2022/07/19 12:04:03;;;;;;;0.45;0.45;;;44.70;46.40;;;;;;5018481;28;20382;-90
2022/07/19 12:06:42;;;;;;;0.28;0.28;;;44.30;46.00;;;;;;5051820;28;20045;-90
2022/07/19 12:09:13;;;;;;;0.40;0.40;;;43.90;46.10;;;;;;5052184;28;20123;-90
2022/07/19 12:11:47;;;;;;;0.30;0.22;;;43.70;46.20;;;;;;5035666;28;20395;-90
2022/07/19 12:14:23;;;;;;;0.43;0.43;;;43.80;46.70;;;;;;5042683;22;20548;-90
2022/07/19 12:17:07;;;;;;;0.20;0.20;;;43.80;45.40;;;;;;5051955;28;20491;-90
2022/07/19 12:19:33;;;;;;;0.33;0.33;;;43.70;46.70;;;;;;5051992;28;20056;-90
2022/07/19 12:21:59;;;;;;;0.20;0.20;;;43.60;46.90;;;;;;5035524;28;20037;-90
2022/07/19 12:24:27;;;;;;;0.43;0.43;;;43.40;46.80;;;;;;5035179;28;20034;-90
2022/07/19 12:26:57;;;;;;;0.20;0.20;;;43.30;46.10;;;;;;5051803;28;20090;-90
2022/07/19 12:29:24;;;;;;;0.25;0.25;;;43.10;46.60;;;;;;5051884;28;20450;-89
2022/07/19 12:31:52;;;;;;;0.50;0.50;;;42.60;46.50;;;;;;5052036;28;20395;-89
2022/07/19 12:34:19;;;;;;;0.10;0.10;;;42.10;48.10;;;;;;5035026;28;20048;-89
2022/07/19 12:36:45;;;;;;;0.30;0.30;;;42.30;48.80;;;;;;5051777;28;20040;-86
2022/07/19 12:39:23;;;;;;;0.17;0.17;;;42.30;46.20;;;;;;5051745;28;20119;-86
2022/07/19 12:42:04;;;;;;;0.40;0.40;;;42.00;46.90;;;;;;5051727;28;20040;-87
2022/07/19 12:44:32;;;;;;;0.38;0.38;;;41.80;47.00;;;;;;5051934;28;20060;-86
2022/07/19 12:46:58;;;;;;;0.40;0.40;;;42.00;47.90;;;;;;5035292;28;20041;-87
2022/07/19 12:49:24;;;;;;;0.40;0.40;;;42.00;48.30;;;;;;5035180;28;20047;-86
2022/07/19 12:51:51;;;;;;;0.30;0.30;;;41.80;46.90;;;;;;5051875;28;20041;-86